sensor_id;sensor_type;location;lat;lon;timestamp;pressure;altitude;pressure_sealevel;temperature;humidity
5350;BME280;2697;42.144;24.794;2023-02-03T00:00:05;154028.25;;;5.67;98.36
5350;BME280;2697;42.144;24.794;2023-02-03T00:02:30;154024.31;;;5.66;99.03
5350;BME280;2697;42.144;24.794;2023-02-03T00:04:56;154019.09;;;5.64;100.00
5350;BME280;2697;42.144;24.794;2023-02-03T00:07:21;154024.31;;;5.66;100.00
5350;BME280;2697;42.144;24.794;2023-02-03T00:09:46;154042.69;;;5.73;99.19
5350;BME280;2697;42.144;24.794;2023-02-03T00:12:12;154042.69;;;5.73;99.71
5350;BME280;2697;42.144;24.794;2023-02-03T00:14:38;154045.31;;;5.74;99.72
5350;BME280;2697;42.144;24.794;2023-02-03T00:17:04;154070.22;;;5.84;99.82
5350;BME280;2697;42.144;24.794;2023-02-03T00:19:29;154032.22;;;5.69;100.00
5350;BME280;2697;42.144;24.794;2023-02-03T00:21:55;154044.00;;;5.73;99.72
5350;BME280;2697;42.144;24.794;2023-02-03T00:24:20;154011.22;;;5.61;100.00
5350;BME280;2697;42.144;24.794;2023-02-03T00:26:48;154015.16;;;5.62;99.95
5350;BME280;2697;42.144;24.794;2023-02-03T00:29:14;154019.09;;;5.64;99.43
5350;BME280;2697;42.144;24.794;2023-02-03T00:31:39;154045.31;;;5.74;97.93
5350;BME280;2697;42.144;24.794;2023-02-03T00:34:05;154040.06;;;5.72;98.54
5350;BME280;2697;42.144;24.794;2023-02-03T00:36:30;154074.16;;;5.85;96.20
5350;BME280;2697;42.144;24.794;2023-02-03T00:38:56;154100.44;;;5.95;94.57
5350;BME280;2697;42.144;24.794;2023-02-03T00:41:21;154116.19;;;6.02;93.91
5350;BME280;2697;42.144;24.794;2023-02-03T00:43:48;154079.44;;;5.87;94.39
5350;BME280;2697;42.144;24.794;2023-02-03T00:46:13;154071.53;;;5.84;93.89
5350;BME280;2697;42.144;24.794;2023-02-03T00:48:39;154067.59;;;5.83;93.26
5350;BME280;2697;42.144;24.794;2023-02-03T00:51:05;154055.84;;;5.78;93.18
5350;BME280;2697;42.144;24.794;2023-02-03T00:53:30;154074.16;;;5.85;93.29
5350;BME280;2697;42.144;24.794;2023-02-03T00:55:56;154087.34;;;5.90;92.78
5350;BME280;2697;42.144;24.794;2023-02-03T00:58:21;154114.88;;;6.01;91.38
5350;BME280;2697;42.144;24.794;2023-02-03T01:00:46;154128.03;;;6.06;90.85
5350;BME280;2697;42.144;24.794;2023-02-03T01:03:12;154093.88;;;5.93;91.69
5350;BME280;2697;42.144;24.794;2023-02-03T01:05:37;154095.19;;;5.93;92.47
5350;BME280;2697;42.144;24.794;2023-02-03T01:08:03;154105.72;;;5.97;91.99
5350;BME280;2697;42.144;24.794;2023-02-03T01:10:28;154072.84;;;5.85;93.02
5350;BME280;2697;42.144;24.794;2023-02-03T01:12:54;154112.25;;;6.00;93.65
5350;BME280;2697;42.144;24.794;2023-02-03T01:15:19;154103.09;;;5.96;94.19
5350;BME280;2697;42.144;24.794;2023-02-03T01:17:45;154082.06;;;5.88;94.65
5350;BME280;2697;42.144;24.794;2023-02-03T01:20:10;154062.38;;;5.81;95.22
5350;BME280;2697;42.144;24.794;2023-02-03T01:22:38;154061.06;;;5.80;95.31
5350;BME280;2697;42.144;24.794;2023-02-03T01:25:04;154045.31;;;5.74;96.54
5350;BME280;2697;42.144;24.794;2023-02-03T01:27:31;154028.25;;;5.67;96.32
5350;BME280;2697;42.144;24.794;2023-02-03T01:29:56;154044.00;;;5.73;95.45
5350;BME280;2697;42.144;24.794;2023-02-03T01:32:21;154061.06;;;5.80;95.04
5350;BME280;2697;42.144;24.794;2023-02-03T01:34:47;154070.22;;;5.84;94.02
5350;BME280;2697;42.144;24.794;2023-02-03T01:37:13;154061.06;;;5.80;93.47
5350;BME280;2697;42.144;24.794;2023-02-03T01:39:41;154053.22;;;5.77;93.39
5350;BME280;2697;42.144;24.794;2023-02-03T01:42:11;154050.53;;;5.76;92.89
5350;BME280;2697;42.144;24.794;2023-02-03T01:44:49;154062.38;;;5.81;93.11
5350;BME280;2697;42.144;24.794;2023-02-03T01:47:34;154047.94;;;5.75;94.43
5350;BME280;2697;42.144;24.794;2023-02-03T01:50:06;154037.47;;;5.71;94.80
5350;BME280;2697;42.144;24.794;2023-02-03T01:52:33;154028.25;;;5.67;94.64
5350;BME280;2697;42.144;24.794;2023-02-03T01:55:02;154019.09;;;5.64;95.87
5350;BME280;2697;42.144;24.794;2023-02-03T01:57:33;154038.75;;;5.71;95.42
5350;BME280;2697;42.144;24.794;2023-02-03T02:00:02;154049.25;;;5.76;94.68
5350;BME280;2697;42.144;24.794;2023-02-03T02:02:29;154044.00;;;5.73;95.93
5350;BME280;2697;42.144;24.794;2023-02-03T02:05:02;154074.16;;;5.85;95.26
5350;BME280;2697;42.144;24.794;2023-02-03T02:07:30;154074.16;;;5.85;95.90
5350;BME280;2697;42.144;24.794;2023-02-03T02:09:57;154055.84;;;5.78;98.01
5350;BME280;2697;42.144;24.794;2023-02-03T02:12:22;154067.59;;;5.83;99.00
5350;BME280;2697;42.144;24.794;2023-02-03T02:14:49;154092.56;;;5.92;98.79
5350;BME280;2697;42.144;24.794;2023-02-03T02:23:09;154088.66;;;5.91;99.48
5350;BME280;2697;42.144;24.794;2023-02-03T02:37:03;154034.84;;;5.70;100.00
5350;BME280;2697;42.144;24.794;2023-02-03T02:39:44;154038.75;;;5.71;100.00
5350;BME280;2697;42.144;24.794;2023-02-03T02:42:14;154029.59;;;5.68;100.00
5350;BME280;2697;42.144;24.794;2023-02-03T02:44:43;154008.63;;;5.60;100.00
5350;BME280;2697;42.144;24.794;2023-02-03T02:47:18;153988.94;;;5.52;100.00
5350;BME280;2697;42.144;24.794;2023-02-03T02:52:12;153982.41;;;5.50;100.00
5350;BME280;2697;42.144;24.794;2023-02-03T02:54:41;154006.00;;;5.59;100.00
5350;BME280;2697;42.144;24.794;2023-02-03T02:57:10;154004.63;;;5.58;100.00
5350;BME280;2697;42.144;24.794;2023-02-03T02:59:37;153995.47;;;5.55;100.00
5350;BME280;2697;42.144;24.794;2023-02-03T03:02:03;153996.78;;;5.55;100.00
5350;BME280;2697;42.144;24.794;2023-02-03T03:04:30;154006.00;;;5.59;100.00
5350;BME280;2697;42.144;24.794;2023-02-03T03:07:07;153975.81;;;5.47;100.00
5350;BME280;2697;42.144;24.794;2023-02-03T03:09:39;153967.94;;;5.44;100.00
5350;BME280;2697;42.144;24.794;2023-02-03T03:12:17;153966.63;;;5.43;100.00
5350;BME280;2697;42.144;24.794;2023-02-03T03:14:50;153962.72;;;5.42;100.00
5350;BME280;2697;42.144;24.794;2023-02-03T03:17:31;153946.97;;;5.36;100.00
5350;BME280;2697;42.144;24.794;2023-02-03T03:20:01;153948.28;;;5.36;100.00
5350;BME280;2697;42.144;24.794;2023-02-03T03:22:32;153924.69;;;5.27;100.00
5350;BME280;2697;42.144;24.794;2023-02-03T03:25:04;153927.28;;;5.28;100.00
5350;BME280;2697;42.144;24.794;2023-02-03T03:27:39;153914.22;;;5.23;100.00
5350;BME280;2697;42.144;24.794;2023-02-03T03:30:17;153914.22;;;5.23;100.00
5350;BME280;2697;42.144;24.794;2023-02-03T03:32:44;153901.06;;;5.18;100.00
5350;BME280;2697;42.144;24.794;2023-02-03T03:35:10;153873.56;;;5.07;100.00
5350;BME280;2697;42.144;24.794;2023-02-03T03:37:44;153895.84;;;5.16;100.00
5350;BME280;2697;42.144;24.794;2023-02-03T03:40:31;153890.59;;;5.14;100.00
5350;BME280;2697;42.144;24.794;2023-02-03T03:43:05;153869.63;;;5.06;100.00
5350;BME280;2697;42.144;24.794;2023-02-03T03:46:07;153840.81;;;4.95;100.00
5350;BME280;2697;42.144;24.794;2023-02-03T03:48:33;153857.81;;;5.01;100.00
5350;BME280;2697;42.144;24.794;2023-02-03T03:51:07;153859.13;;;5.02;100.00
5350;BME280;2697;42.144;24.794;2023-02-03T03:53:38;153848.66;;;4.98;100.00
5350;BME280;2697;42.144;24.794;2023-02-03T03:56:07;153872.25;;;5.07;100.00
5350;BME280;2697;42.144;24.794;2023-02-03T03:58:36;153888.00;;;5.13;100.00
5350;BME280;2697;42.144;24.794;2023-02-03T04:01:05;153884.00;;;5.11;100.00
5350;BME280;2697;42.144;24.794;2023-02-03T04:03:37;153911.59;;;5.22;100.00
5350;BME280;2697;42.144;24.794;2023-02-03T04:06:04;153927.28;;;5.28;100.00
5350;BME280;2697;42.144;24.794;2023-02-03T04:08:29;153937.81;;;5.32;100.00
5350;BME280;2697;42.144;24.794;2023-02-03T04:10:55;153940.41;;;5.33;100.00
5350;BME280;2697;42.144;24.794;2023-02-03T04:13:20;153940.41;;;5.33;100.00
5350;BME280;2697;42.144;24.794;2023-02-03T04:15:46;153931.22;;;5.30;100.00
5350;BME280;2697;42.144;24.794;2023-02-03T04:18:13;153956.13;;;5.39;100.00
5350;BME280;2697;42.144;24.794;2023-02-03T04:20:39;153935.19;;;5.31;100.00
5350;BME280;2697;42.144;24.794;2023-02-03T04:23:04;153916.81;;;5.24;100.00
5350;BME280;2697;42.144;24.794;2023-02-03T04:25:30;153958.78;;;5.40;100.00
5350;BME280;2697;42.144;24.794;2023-02-03T04:27:55;153941.72;;;5.34;100.00
5350;BME280;2697;42.144;24.794;2023-02-03T04:30:21;153945.66;;;5.35;100.00
5350;BME280;2697;42.144;24.794;2023-02-03T04:32:46;153953.50;;;5.38;100.00
5350;BME280;2697;42.144;24.794;2023-02-03T04:35:12;153969.25;;;5.44;100.00
5350;BME280;2697;42.144;24.794;2023-02-03T04:37:38;153964.03;;;5.42;100.00
5350;BME280;2697;42.144;24.794;2023-02-03T04:40:04;153924.69;;;5.27;100.00
5350;BME280;2697;42.144;24.794;2023-02-03T04:42:29;153901.06;;;5.18;100.00
5350;BME280;2697;42.144;24.794;2023-02-03T04:44:55;153878.78;;;5.09;100.00
5350;BME280;2697;42.144;24.794;2023-02-03T04:47:20;153888.00;;;5.13;100.00
5350;BME280;2697;42.144;24.794;2023-02-03T04:49:46;153872.25;;;5.07;100.00
5350;BME280;2697;42.144;24.794;2023-02-03T04:52:11;153872.25;;;5.07;100.00
5350;BME280;2697;42.144;24.794;2023-02-03T04:54:37;153864.41;;;5.04;100.00
5350;BME280;2697;42.144;24.794;2023-02-03T04:57:04;153846.03;;;4.97;100.00
5350;BME280;2697;42.144;24.794;2023-02-03T04:59:29;153836.84;;;4.93;100.00
5350;BME280;2697;42.144;24.794;2023-02-03T05:01:55;153808.00;;;4.82;100.00
5350;BME280;2697;42.144;24.794;2023-02-03T05:04:20;153832.91;;;4.92;100.00
5350;BME280;2697;42.144;24.794;2023-02-03T05:06:46;153813.28;;;4.84;100.00
5350;BME280;2697;42.144;24.794;2023-02-03T05:09:11;153819.81;;;4.86;100.00
5350;BME280;2697;42.144;24.794;2023-02-03T05:11:37;153775.25;;;4.69;100.00
5350;BME280;2697;42.144;24.794;2023-02-03T05:14:02;153827.69;;;4.90;100.00
5350;BME280;2697;42.144;24.794;2023-02-03T05:16:28;153835.53;;;4.93;100.00
5350;BME280;2697;42.144;24.794;2023-02-03T05:18:53;153796.25;;;4.77;100.00
5350;BME280;2697;42.144;24.794;2023-02-03T05:21:19;153767.41;;;4.66;100.00
5350;BME280;2697;42.144;24.794;2023-02-03T05:23:44;153791.00;;;4.75;100.00
5350;BME280;2697;42.144;24.794;2023-02-03T05:26:10;153784.41;;;4.73;100.00
5350;BME280;2697;42.144;24.794;2023-02-03T05:28:35;153772.66;;;4.68;100.00
5350;BME280;2697;42.144;24.794;2023-02-03T05:31:01;153752.97;;;4.61;100.00
5350;BME280;2697;42.144;24.794;2023-02-03T05:33:27;153755.59;;;4.62;100.00
5350;BME280;2697;42.144;24.794;2023-02-03T05:35:53;153752.97;;;4.61;100.00
5350;BME280;2697;42.144;24.794;2023-02-03T05:38:18;153734.63;;;4.53;100.00
5350;BME280;2697;42.144;24.794;2023-02-03T05:40:47;153763.44;;;4.65;100.00
5350;BME280;2697;42.144;24.794;2023-02-03T05:43:31;153732.03;;;4.52;100.00
5350;BME280;2697;42.144;24.794;2023-02-03T05:45:59;153728.09;;;4.51;100.00
5350;BME280;2697;42.144;24.794;2023-02-03T05:48:25;153725.47;;;4.50;100.00
5350;BME280;2697;42.144;24.794;2023-02-03T05:50:50;153701.91;;;4.41;100.00
5350;BME280;2697;42.144;24.794;2023-02-03T05:53:16;153712.34;;;4.45;100.00
5350;BME280;2697;42.144;24.794;2023-02-03T05:55:41;153701.91;;;4.41;100.00
5350;BME280;2697;42.144;24.794;2023-02-03T05:58:06;153674.41;;;4.30;100.00
5350;BME280;2697;42.144;24.794;2023-02-03T06:00:32;153712.34;;;4.45;100.00
5350;BME280;2697;42.144;24.794;2023-02-03T06:02:59;153714.97;;;4.46;100.00
5350;BME280;2697;42.144;24.794;2023-02-03T06:05:26;153713.66;;;4.45;100.00
5350;BME280;2697;42.144;24.794;2023-02-03T06:07:53;153696.66;;;4.39;100.00
5350;BME280;2697;42.144;24.794;2023-02-03T06:10:19;153717.63;;;4.47;100.00
5350;BME280;2697;42.144;24.794;2023-02-03T06:12:45;153739.84;;;4.55;100.00
5350;BME280;2697;42.144;24.794;2023-02-03T06:15:10;153732.03;;;4.52;100.00
5350;BME280;2697;42.144;24.794;2023-02-03T06:17:36;153730.72;;;4.52;100.00
5350;BME280;2697;42.144;24.794;2023-02-03T06:20:07;153768.72;;;4.67;100.00
5350;BME280;2697;42.144;24.794;2023-02-03T06:22:33;153770.03;;;4.67;100.00
5350;BME280;2697;42.144;24.794;2023-02-03T06:24:59;153817.22;;;4.85;100.00
5350;BME280;2697;42.144;24.794;2023-02-03T06:27:25;153806.69;;;4.81;100.00
5350;BME280;2697;42.144;24.794;2023-02-03T06:29:50;153836.84;;;4.93;100.00
5350;BME280;2697;42.144;24.794;2023-02-03T06:32:16;153830.28;;;4.91;100.00
5350;BME280;2697;42.144;24.794;2023-02-03T06:34:41;153838.19;;;4.94;100.00
5350;BME280;2697;42.144;24.794;2023-02-03T06:37:07;153822.44;;;4.88;100.00
5350;BME280;2697;42.144;24.794;2023-02-03T06:39:32;153741.22;;;4.56;100.00
5350;BME280;2697;42.144;24.794;2023-02-03T06:41:57;153863.09;;;5.03;98.89
5350;BME280;2697;42.144;24.794;2023-02-03T06:44:24;153898.47;;;5.17;98.03
5350;BME280;2697;42.144;24.794;2023-02-03T06:46:49;153932.53;;;5.30;94.65
5350;BME280;2697;42.144;24.794;2023-02-03T06:49:15;153950.88;;;5.37;94.30
5350;BME280;2697;42.144;24.794;2023-02-03T06:51:45;153943.03;;;5.34;93.11
5350;BME280;2697;42.144;24.794;2023-02-03T06:54:11;153958.78;;;5.40;92.42
5350;BME280;2697;42.144;24.794;2023-02-03T06:56:37;153956.13;;;5.39;92.58
5350;BME280;2697;42.144;24.794;2023-02-03T06:59:03;153964.03;;;5.42;92.44
5350;BME280;2697;42.144;24.794;2023-02-03T07:01:28;154003.31;;;5.58;92.15
5350;BME280;2697;42.144;24.794;2023-02-03T07:03:55;153992.84;;;5.54;92.12
5350;BME280;2697;42.144;24.794;2023-02-03T07:06:24;153956.13;;;5.39;92.33
5350;BME280;2697;42.144;24.794;2023-02-03T07:08:55;153960.09;;;5.41;92.91
5350;BME280;2697;42.144;24.794;2023-02-03T07:11:21;154020.38;;;5.64;92.47
5350;BME280;2697;42.144;24.794;2023-02-03T07:13:47;154026.94;;;5.67;90.76
5350;BME280;2697;42.144;24.794;2023-02-03T07:16:13;154063.69;;;5.81;90.24
5350;BME280;2697;42.144;24.794;2023-02-03T07:18:38;154101.78;;;5.96;89.13
5350;BME280;2697;42.144;24.794;2023-02-03T07:21:05;154169.97;;;6.22;87.30
5350;BME280;2697;42.144;24.794;2023-02-03T07:23:30;154198.88;;;6.34;86.72
5350;BME280;2697;42.144;24.794;2023-02-03T07:26:04;154205.44;;;6.36;86.22
5350;BME280;2697;42.144;24.794;2023-02-03T07:28:31;154205.44;;;6.36;85.19
5350;BME280;2697;42.144;24.794;2023-02-03T07:30:56;154209.34;;;6.38;84.93
5350;BME280;2697;42.144;24.794;2023-02-03T07:33:22;154230.34;;;6.46;84.65
5350;BME280;2697;42.144;24.794;2023-02-03T07:35:55;154205.44;;;6.36;85.56
5350;BME280;2697;42.144;24.794;2023-02-03T07:38:21;154181.81;;;6.27;85.80
5350;BME280;2697;42.144;24.794;2023-02-03T07:40:47;154184.41;;;6.28;85.84
5350;BME280;2697;42.144;24.794;2023-02-03T07:43:12;154193.59;;;6.32;85.61
5350;BME280;2697;42.144;24.794;2023-02-03T07:45:38;154183.13;;;6.27;86.54
5350;BME280;2697;42.144;24.794;2023-02-03T07:48:03;154218.53;;;6.41;86.10
5350;BME280;2697;42.144;24.794;2023-02-03T07:50:29;154247.44;;;6.52;86.07
5350;BME280;2697;42.144;24.794;2023-02-03T07:52:55;154229.03;;;6.45;86.93
5350;BME280;2697;42.144;24.794;2023-02-03T07:55:21;154273.69;;;6.63;86.80
5350;BME280;2697;42.144;24.794;2023-02-03T07:57:47;154288.09;;;6.68;84.73
5350;BME280;2697;42.144;24.794;2023-02-03T08:00:14;154294.69;;;6.71;84.81
5350;BME280;2697;42.144;24.794;2023-02-03T08:02:43;154328.78;;;6.84;84.15
5350;BME280;2697;42.144;24.794;2023-02-03T08:05:10;154356.34;;;6.95;83.05
5350;BME280;2697;42.144;24.794;2023-02-03T08:07:35;154370.81;;;7.00;83.68
5350;BME280;2697;42.144;24.794;2023-02-03T08:10:01;154381.28;;;7.04;82.03
5350;BME280;2697;42.144;24.794;2023-02-03T08:12:26;154424.63;;;7.21;81.46
5350;BME280;2697;42.144;24.794;2023-02-03T08:14:52;154411.47;;;7.16;81.88
5350;BME280;2697;42.144;24.794;2023-02-03T08:17:17;154445.66;;;7.29;81.07
5350;BME280;2697;42.144;24.794;2023-02-03T08:19:42;154446.97;;;7.30;79.68
5350;BME280;2697;42.144;24.794;2023-02-03T08:22:08;154465.38;;;7.37;79.04
5350;BME280;2697;42.144;24.794;2023-02-03T08:24:40;154431.19;;;7.24;78.63
5350;BME280;2697;42.144;24.794;2023-02-03T08:27:10;154473.22;;;7.40;79.33
5350;BME280;2697;42.144;24.794;2023-02-03T08:29:35;154475.84;;;7.41;78.01
5350;BME280;2697;42.144;24.794;2023-02-03T08:32:00;154502.13;;;7.51;77.57
5350;BME280;2697;42.144;24.794;2023-02-03T08:34:26;154494.25;;;7.48;76.70
5350;BME280;2697;42.144;24.794;2023-02-03T08:36:51;154538.91;;;7.65;76.22
5350;BME280;2697;42.144;24.794;2023-02-03T08:39:17;154494.25;;;7.48;73.36
5350;BME280;2697;42.144;24.794;2023-02-03T08:41:42;154450.91;;;7.31;74.80
5350;BME280;2697;42.144;24.794;2023-02-03T08:44:07;154499.50;;;7.50;73.57
5350;BME280;2697;42.144;24.794;2023-02-03T08:46:33;154513.97;;;7.56;73.49
5350;BME280;2697;42.144;24.794;2023-02-03T08:48:59;154532.31;;;7.63;73.20
5350;BME280;2697;42.144;24.794;2023-02-03T08:51:27;154590.16;;;7.85;72.49
5350;BME280;2697;42.144;24.794;2023-02-03T08:53:52;154598.00;;;7.88;71.54
5350;BME280;2697;42.144;24.794;2023-02-03T08:56:18;154628.22;;;8.00;70.33
5350;BME280;2697;42.144;24.794;2023-02-03T08:58:43;154625.59;;;7.99;68.26
5350;BME280;2697;42.144;24.794;2023-02-03T09:01:11;154683.44;;;8.21;67.14
5350;BME280;2697;42.144;24.794;2023-02-03T09:03:37;154724.22;;;8.37;66.64
5350;BME280;2697;42.144;24.794;2023-02-03T09:06:04;154704.47;;;8.29;63.80
5350;BME280;2697;42.144;24.794;2023-02-03T09:08:30;154617.72;;;7.96;65.80
5350;BME280;2697;42.144;24.794;2023-02-03T09:10:55;154650.56;;;8.09;66.21
5350;BME280;2697;42.144;24.794;2023-02-03T09:13:20;154716.28;;;8.34;65.01
5350;BME280;2697;42.144;24.794;2023-02-03T09:15:46;154659.78;;;8.12;62.77
5350;BME280;2697;42.144;24.794;2023-02-03T09:18:11;154696.56;;;8.26;63.08
5350;BME280;2697;42.144;24.794;2023-02-03T09:20:37;154674.22;;;8.18;62.51
5350;BME280;2697;42.144;24.794;2023-02-03T09:23:02;154666.34;;;8.15;62.51
5350;BME280;2697;42.144;24.794;2023-02-03T09:25:27;154641.38;;;8.05;61.30
5350;BME280;2697;42.144;24.794;2023-02-03T09:27:53;154675.53;;;8.18;61.09
5350;BME280;2697;42.144;24.794;2023-02-03T09:30:18;154676.84;;;8.19;59.79
5350;BME280;2697;42.144;24.794;2023-02-03T09:32:43;154724.22;;;8.37;59.89
5350;BME280;2697;42.144;24.794;2023-02-03T09:35:13;154730.81;;;8.40;58.81
5350;BME280;2697;42.144;24.794;2023-02-03T09:37:38;154704.47;;;8.29;58.19
5350;BME280;2697;42.144;24.794;2023-02-03T09:40:04;154722.91;;;8.37;58.68
5350;BME280;2697;42.144;24.794;2023-02-03T09:45:24;154716.28;;;8.34;55.98
5350;BME280;2697;42.144;24.794;2023-02-03T09:47:52;154733.44;;;8.41;57.00
5350;BME280;2697;42.144;24.794;2023-02-03T09:50:23;154725.56;;;8.38;56.71
5350;BME280;2697;42.144;24.794;2023-02-03T09:52:51;154730.81;;;8.40;56.52
5350;BME280;2697;42.144;24.794;2023-02-03T09:58:13;154759.72;;;8.51;55.87
5350;BME280;2697;42.144;24.794;2023-02-03T10:01:00;154812.31;;;8.71;55.96
5350;BME280;2697;42.144;24.794;2023-02-03T10:06:15;154743.94;;;8.45;55.39
5350;BME280;2697;42.144;24.794;2023-02-03T10:17:29;154895.16;;;9.03;53.89
5350;BME280;2697;42.144;24.794;2023-02-03T10:20:05;154791.25;;;8.63;53.39
5350;BME280;2697;42.144;24.794;2023-02-03T10:22:40;154875.44;;;8.96;53.95
5350;BME280;2697;42.144;24.794;2023-02-03T10:25:18;154950.41;;;9.25;52.32
5350;BME280;2697;42.144;24.794;2023-02-03T10:27:45;154900.41;;;9.05;52.37
5350;BME280;2697;42.144;24.794;2023-02-03T10:30:22;154938.53;;;9.20;51.38
5350;BME280;2697;42.144;24.794;2023-02-03T10:33:11;154966.19;;;9.31;50.99
5350;BME280;2697;42.144;24.794;2023-02-03T10:38:15;155009.56;;;9.48;50.10
5350;BME280;2697;42.144;24.794;2023-02-03T10:40:43;154954.34;;;9.26;50.39
5350;BME280;2697;42.144;24.794;2023-02-03T10:43:10;154925.41;;;9.15;51.14
5350;BME280;2697;42.144;24.794;2023-02-03T10:45:54;154980.63;;;9.36;51.47
5350;BME280;2697;42.144;24.794;2023-02-03T10:48:19;155037.19;;;9.58;51.78
5350;BME280;2697;42.144;24.794;2023-02-03T10:50:49;154993.81;;;9.41;50.49
5350;BME280;2697;42.144;24.794;2023-02-03T10:55:43;154885.94;;;9.00;52.01
5350;BME280;2697;42.144;24.794;2023-02-03T10:58:25;154959.59;;;9.28;51.99
5350;BME280;2697;42.144;24.794;2023-02-03T11:00:55;154979.31;;;9.36;51.59
5350;BME280;2697;42.144;24.794;2023-02-03T11:03:26;155025.38;;;9.54;50.72
5350;BME280;2697;42.144;24.794;2023-02-03T11:06:08;155053.00;;;9.64;49.84
5350;BME280;2697;42.144;24.794;2023-02-03T11:08:37;155004.31;;;9.46;49.01
5350;BME280;2697;42.144;24.794;2023-02-03T11:11:08;155018.81;;;9.51;50.45
5350;BME280;2697;42.144;24.794;2023-02-03T11:13:34;155062.25;;;9.68;49.75
5350;BME280;2697;42.144;24.794;2023-02-03T11:16:01;155100.38;;;9.83;49.96
5350;BME280;2697;42.144;24.794;2023-02-03T11:26:50;155034.56;;;9.57;50.71
5350;BME280;2697;42.144;24.794;2023-02-03T11:29:22;155126.69;;;9.93;50.23
5350;BME280;2697;42.144;24.794;2023-02-03T11:31:50;155141.19;;;9.98;49.23
5350;BME280;2697;42.144;24.794;2023-02-03T11:34:20;155167.50;;;10.09;49.27
5350;BME280;2697;42.144;24.794;2023-02-03T11:36:48;155105.63;;;9.85;48.73
5350;BME280;2697;42.144;24.794;2023-02-03T11:39:28;155149.06;;;10.02;48.89
5350;BME280;2697;42.144;24.794;2023-02-03T11:41:55;155191.19;;;10.18;48.40
5350;BME280;2697;42.144;24.794;2023-02-03T11:44:21;155236.00;;;10.35;46.98
5350;BME280;2697;42.144;24.794;2023-02-03T11:46:50;155175.38;;;10.12;47.37
5350;BME280;2697;42.144;24.794;2023-02-03T12:06:48;155122.75;;;9.91;46.05
5350;BME280;2697;42.144;24.794;2023-02-03T12:22:25;155055.63;;;9.65;45.47
5350;BME280;2697;42.144;24.794;2023-02-03T12:30:40;155014.88;;;9.50;46.45
5350;BME280;2697;42.144;24.794;2023-02-03T12:33:22;155009.56;;;9.48;45.98
5350;BME280;2697;42.144;24.794;2023-02-03T12:36:00;154945.16;;;9.23;46.49
5350;BME280;2697;42.144;24.794;2023-02-03T12:41:50;154967.50;;;9.31;46.53
5350;BME280;2697;42.144;24.794;2023-02-03T12:44:18;154999.06;;;9.43;46.14
5350;BME280;2697;42.144;24.794;2023-02-03T12:46:55;155008.25;;;9.47;46.04
5350;BME280;2697;42.144;24.794;2023-02-03T12:52:26;155025.38;;;9.54;44.57
5350;BME280;2697;42.144;24.794;2023-02-03T12:58:05;155025.38;;;9.54;45.41
5350;BME280;2697;42.144;24.794;2023-02-03T13:00:50;155062.25;;;9.68;44.74
5350;BME280;2697;42.144;24.794;2023-02-03T13:08:59;155014.88;;;9.50;44.97
5350;BME280;2697;42.144;24.794;2023-02-03T13:11:47;155021.44;;;9.52;44.29
5350;BME280;2697;42.144;24.794;2023-02-03T13:14:27;155079.31;;;9.75;44.21
5350;BME280;2697;42.144;24.794;2023-02-03T13:17:07;155106.94;;;9.85;44.18
5350;BME280;2697;42.144;24.794;2023-02-03T13:19:48;155106.94;;;9.85;44.44
5350;BME280;2697;42.144;24.794;2023-02-03T13:22:14;155078.00;;;9.74;44.53
5350;BME280;2697;42.144;24.794;2023-02-03T13:27:50;155039.88;;;9.59;46.02
5350;BME280;2697;42.144;24.794;2023-02-03T13:30:44;155050.38;;;9.63;46.28
5350;BME280;2697;42.144;24.794;2023-02-03T13:39:25;155038.56;;;9.59;45.81
5350;BME280;2697;42.144;24.794;2023-02-03T13:44:35;155033.25;;;9.57;45.17
5350;BME280;2697;42.144;24.794;2023-02-03T13:47:03;155047.75;;;9.62;44.40
5350;BME280;2697;42.144;24.794;2023-02-03T13:49:33;155041.19;;;9.60;44.13
5350;BME280;2697;42.144;24.794;2023-02-03T13:52:00;155064.88;;;9.69;42.59
5350;BME280;2697;42.144;24.794;2023-02-03T13:54:32;155008.25;;;9.47;43.06
5350;BME280;2697;42.144;24.794;2023-02-03T13:57:18;154967.50;;;9.31;42.76
5350;BME280;2697;42.144;24.794;2023-02-03T13:59:45;154899.09;;;9.05;43.57
5350;BME280;2697;42.144;24.794;2023-02-03T14:02:44;154899.09;;;9.05;42.96
5350;BME280;2697;42.144;24.794;2023-02-03T14:05:38;154912.22;;;9.10;43.61
5350;BME280;2697;42.144;24.794;2023-02-03T14:16:36;154916.16;;;9.11;41.83
5350;BME280;2697;42.144;24.794;2023-02-03T14:19:03;154921.47;;;9.13;41.89
5350;BME280;2697;42.144;24.794;2023-02-03T14:21:51;154922.78;;;9.14;40.52
5350;BME280;2697;42.144;24.794;2023-02-03T14:24:18;154921.47;;;9.13;41.79
5350;BME280;2697;42.144;24.794;2023-02-03T14:26:51;154904.34;;;9.07;42.16
5350;BME280;2697;42.144;24.794;2023-02-03T14:29:28;154896.47;;;9.04;42.59
5350;BME280;2697;42.144;24.794;2023-02-03T14:32:40;154909.59;;;9.09;41.58
5350;BME280;2697;42.144;24.794;2023-02-03T14:34:52;154882.00;;;8.98;41.88
5350;BME280;2697;42.144;24.794;2023-02-03T14:37:24;154853.06;;;8.87;43.06
5350;BME280;2697;42.144;24.794;2023-02-03T14:45:16;154791.25;;;8.63;42.00
5350;BME280;2697;42.144;24.794;2023-02-03T14:50:33;154767.59;;;8.54;42.63
5350;BME280;2697;42.144;24.794;2023-02-03T14:53:15;154799.19;;;8.66;43.11
5350;BME280;2697;42.144;24.794;2023-02-03T14:58:33;154738.69;;;8.43;43.80
5350;BME280;2697;42.144;24.794;2023-02-03T15:01:03;154708.41;;;8.31;44.17
5350;BME280;2697;42.144;24.794;2023-02-03T15:03:29;154678.19;;;8.19;44.62
5350;BME280;2697;42.144;24.794;2023-02-03T15:05:59;154684.75;;;8.22;43.72
5350;BME280;2697;42.144;24.794;2023-02-03T15:08:45;154678.19;;;8.19;42.57
5350;BME280;2697;42.144;24.794;2023-02-03T15:13:54;154653.22;;;8.10;42.64
5350;BME280;2697;42.144;24.794;2023-02-03T15:16:22;154625.59;;;7.99;42.85
5350;BME280;2697;42.144;24.794;2023-02-03T15:18:58;154612.47;;;7.94;43.24
5350;BME280;2697;42.144;24.794;2023-02-03T15:21:25;154592.78;;;7.86;43.21
5350;BME280;2697;42.144;24.794;2023-02-03T15:23:51;154563.88;;;7.75;43.86
5350;BME280;2697;42.144;24.794;2023-02-03T15:26:23;154559.94;;;7.74;43.85
5350;BME280;2697;42.144;24.794;2023-02-03T15:29:01;154521.81;;;7.59;44.48
5350;BME280;2697;42.144;24.794;2023-02-03T15:31:39;154520.50;;;7.58;44.41